Time;durP1;ratioP1;P1;durP2;ratioP2;P2;SDS_P1;SDS_P2;PMS_P1;PMS_P2;Temp;Humidity;BMP_temperature;BMP_pressure;BME280_temperature;BME280_humidity;BME280_pressure;Samples;Min_cycle;Max_cycle;Signal;HPM_P1;HPM_P2
2024/01/15 00:00:04;;;;;;;25.53;7.70;;;;;;;-1.35;100.00;95160.13;5039057;28;21059;-67
2024/01/15 00:02:31;;;;;;;20.30;6.47;;;;;;;-1.32;100.00;95166.75;5038964;28;20205;-68
2024/01/15 00:04:58;;;;;;;20.40;7.00;;;;;;;-1.10;100.00;95163.00;5038647;28;21027;-68
2024/01/15 00:07:25;;;;;;;16.93;5.50;;;;;;;-1.21;100.00;95155.38;5038799;28;20232;-67
2024/01/15 00:09:51;;;;;;;11.57;5.13;;;;;;;-1.11;100.00;95148.47;5038753;28;20600;-67
2024/01/15 00:12:18;;;;;;;13.37;5.27;;;;;;;-1.04;100.00;95139.22;5039005;28;20230;-68
2024/01/15 00:14:44;;;;;;;12.70;5.43;;;;;;;-0.99;100.00;95136.25;5038700;28;20197;-67
2024/01/15 00:17:11;;;;;;;13.03;5.33;;;;;;;-0.84;100.00;95140.03;5038583;28;20745;-67
2024/01/15 00:19:37;;;;;;;16.10;6.20;;;;;;;-0.95;100.00;95141.00;5037617;28;20202;-68
2024/01/15 00:22:05;;;;;;;13.33;5.20;;;;;;;-0.83;100.00;95142.47;5038819;28;20227;-67
2024/01/15 00:24:32;;;;;;;12.10;5.50;;;;;;;-1.04;100.00;95146.16;5038828;28;20212;-68
2024/01/15 00:26:58;;;;;;;13.93;5.27;;;;;;;-1.18;100.00;95139.59;5038607;28;20240;-67
2024/01/15 00:29:25;;;;;;;13.37;4.47;;;;;;;-1.07;100.00;95136.06;5038347;28;20232;-68
2024/01/15 00:31:52;;;;;;;9.77;4.80;;;;;;;-1.08;100.00;95145.59;5038115;28;20293;-67
2024/01/15 00:34:18;;;;;;;7.83;2.53;;;;;;;-0.95;100.00;95135.81;5038734;28;20260;-67
2024/01/15 00:36:44;;;;;;;15.27;5.00;;;;;;;-0.80;100.00;95144.81;5038020;28;20236;-67
2024/01/15 00:39:12;;;;;;;11.33;4.57;;;;;;;-0.74;100.00;95144.25;5038195;28;20208;-68
2024/01/15 00:41:39;;;;;;;8.67;4.07;;;;;;;-0.75;100.00;95142.63;5038546;28;20299;-67
2024/01/15 00:44:05;;;;;;;13.13;5.27;;;;;;;-0.68;100.00;95124.81;5038842;28;20208;-68
2024/01/15 00:46:33;;;;;;;8.83;3.80;;;;;;;-0.73;100.00;95127.78;5036954;28;20299;-68
2024/01/15 00:49:00;;;;;;;14.03;4.80;;;;;;;-0.64;100.00;95133.94;5037377;28;20199;-67
2024/01/15 00:51:26;;;;;;;13.03;5.33;;;;;;;-0.61;100.00;95129.31;5038071;28;20317;-67
2024/01/15 00:53:52;;;;;;;11.23;4.23;;;;;;;-0.60;100.00;95125.75;5037981;28;20831;-67
2024/01/15 00:56:20;;;;;;;12.97;4.43;;;;;;;-0.46;100.00;95128.75;5037378;28;20228;-67
2024/01/15 00:58:47;;;;;;;8.70;3.90;;;;;;;-0.49;100.00;95123.03;5038060;28;20577;-67
2024/01/15 01:01:13;;;;;;;11.90;3.77;;;;;;;-0.45;100.00;95127.75;5037717;28;20205;-67
2024/01/15 01:03:40;;;;;;;13.13;3.77;;;;;;;-0.42;100.00;95129.25;5038475;28;20229;-67
2024/01/15 01:06:06;;;;;;;9.60;3.77;;;;;;;-0.37;100.00;95134.84;5037572;28;20217;-67
2024/01/15 01:08:33;;;;;;;14.97;5.07;;;;;;;-0.37;100.00;95133.09;5037317;28;20985;-67
2024/01/15 01:10:59;;;;;;;8.23;3.27;;;;;;;-0.38;100.00;95126.28;5038125;28;20244;-67
2024/01/15 01:13:27;;;;;;;12.13;4.27;;;;;;;-0.25;100.00;95121.63;5037126;28;20195;-67
2024/01/15 01:15:53;;;;;;;7.10;3.37;;;;;;;-0.40;100.00;95140.31;5036990;28;20219;-68
2024/01/15 01:18:20;;;;;;;11.23;3.93;;;;;;;-0.34;100.00;95134.59;5036518;28;20211;-67
2024/01/15 01:20:46;;;;;;;9.10;2.93;;;;;;;-0.26;100.00;95142.47;5036916;28;20211;-67
2024/01/15 01:23:13;;;;;;;13.43;4.73;;;;;;;-0.23;100.00;95148.19;5036436;28;20216;-67
2024/01/15 01:25:39;;;;;;;11.87;3.57;;;;;;;-0.22;100.00;95151.56;5036979;28;20211;-68
2024/01/15 01:28:06;;;;;;;10.53;3.20;;;;;;;-0.19;100.00;95146.13;5036877;28;20207;-67
2024/01/15 01:30:34;;;;;;;10.50;3.37;;;;;;;-0.08;100.00;95141.59;5037177;28;20232;-67
2024/01/15 01:33:00;;;;;;;7.57;3.13;;;;;;;-0.32;100.00;95143.00;5037287;28;20234;-67
2024/01/15 01:35:27;;;;;;;10.83;4.57;;;;;;;-0.41;100.00;95138.66;5036952;28;20740;-67
2024/01/15 01:37:53;;;;;;;7.23;2.70;;;;;;;-0.51;100.00;95130.09;5037442;28;20204;-68
2024/01/15 01:40:20;;;;;;;15.50;4.67;;;;;;;-0.45;100.00;95127.75;5037307;28;20195;-67
2024/01/15 01:42:47;;;;;;;12.27;3.70;;;;;;;-0.37;100.00;95127.91;5037335;28;20205;-68
2024/01/15 01:45:13;;;;;;;7.83;3.10;;;;;;;-0.54;100.00;95118.25;5036953;28;20205;-67
2024/01/15 01:47:41;;;;;;;18.67;4.73;;;;;;;-0.19;100.00;95115.88;5036940;28;20225;-67
2024/01/15 01:50:08;;;;;;;8.50;3.27;;;;;;;-0.36;100.00;95120.94;5036469;28;20235;-67
2024/01/15 01:52:35;;;;;;;8.23;3.73;;;;;;;-0.38;100.00;95117.69;5036305;28;20947;-67
2024/01/15 01:55:03;;;;;;;8.07;3.17;;;;;;;-0.36;100.00;95120.94;5036425;28;20203;-67
2024/01/15 01:57:32;;;;;;;11.27;2.90;;;;;;;-0.34;100.00;95116.47;5036988;28;20238;-67
2024/01/15 01:59:59;;;;;;;12.67;4.00;;;;;;;-0.42;100.00;95113.72;5037183;28;20199;-67
2024/01/15 02:02:26;;;;;;;10.87;3.87;;;;;;;-0.43;100.00;95117.31;5036926;28;20700;-68
2024/01/15 02:04:54;;;;;;;10.50;3.33;;;;;;;-0.40;100.00;95115.22;5036929;28;20204;-68
2024/01/15 02:07:20;;;;;;;11.07;3.37;;;;;;;-0.48;100.00;95114.31;5036615;28;20227;-67
2024/01/15 02:09:47;;;;;;;11.43;3.60;;;;;;;-0.48;100.00;95120.28;5036765;28;20240;-67
2024/01/15 02:12:13;;;;;;;7.80;3.13;;;;;;;-0.54;100.00;95122.63;5037059;28;20216;-67
2024/01/15 02:14:40;;;;;;;8.47;3.67;;;;;;;-0.54;100.00;95120.84;5036851;28;20205;-67
2024/01/15 02:17:07;;;;;;;10.60;3.60;;;;;;;-0.58;100.00;95132.41;5035901;28;20233;-67
2024/01/15 02:19:33;;;;;;;7.87;3.30;;;;;;;-0.64;100.00;95126.97;5036315;28;20197;-67
2024/01/15 02:22:02;;;;;;;8.60;3.43;;;;;;;-0.74;100.00;95112.41;5036734;28;20579;-67
2024/01/15 02:24:29;;;;;;;7.27;3.30;;;;;;;-0.49;100.00;95128.19;5036192;28;20744;-68
2024/01/15 02:26:56;;;;;;;11.93;3.80;;;;;;;-0.65;100.00;95133.09;5036679;28;20224;-67
2024/01/15 02:29:23;;;;;;;8.67;3.33;;;;;;;-0.54;100.00;95140.72;5036897;28;20211;-67
2024/01/15 02:31:50;;;;;;;13.23;5.17;;;;;;;-0.71;100.00;95133.66;5036567;28;20229;-67
2024/01/15 02:34:16;;;;;;;4.57;2.37;;;;;;;-0.73;100.00;95139.91;5036724;28;20202;-67
2024/01/15 02:36:43;;;;;;;10.30;4.47;;;;;;;-0.87;100.00;95133.38;5036554;28;20228;-68
2024/01/15 02:39:09;;;;;;;11.67;3.93;;;;;;;-0.79;100.00;95135.28;5037313;28;20204;-68
2024/01/15 02:41:37;;;;;;;14.53;3.57;;;;;;;-0.63;100.00;95131.19;5040905;28;20202;-67
2024/01/15 02:44:03;;;;;;;9.47;3.43;;;;;;;-0.74;100.00;95130.53;5041031;28;20546;-67
2024/01/15 02:46:30;;;;;;;14.13;3.60;;;;;;;-0.79;100.00;95136.13;5039693;28;20221;-68
2024/01/15 02:48:56;;;;;;;15.13;5.20;;;;;;;-0.70;100.00;95135.28;5039432;28;20204;-67
2024/01/15 02:51:23;;;;;;;8.97;3.13;;;;;;;-0.87;100.00;95135.94;5040759;28;20233;-67
2024/01/15 02:53:51;;;;;;;9.13;3.77;;;;;;;-0.63;100.00;95139.75;5040544;28;20847;-67
2024/01/15 02:56:17;;;;;;;12.23;4.00;;;;;;;-0.77;100.00;95141.94;5039391;28;20221;-68
2024/01/15 02:58:45;;;;;;;10.00;3.87;;;;;;;-0.72;100.00;95147.53;5040468;28;20199;-67
2024/01/15 03:01:12;;;;;;;10.27;4.37;;;;;;;-0.70;100.00;95147.38;5040273;28;20231;-67
2024/01/15 03:03:38;;;;;;;14.90;4.93;;;;;;;-0.71;100.00;95154.34;5040468;28;20204;-67
2024/01/15 03:06:05;;;;;;;6.40;2.50;;;;;;;-0.73;100.00;95145.09;5039224;28;20226;-67
2024/01/15 03:08:32;;;;;;;9.83;4.30;;;;;;;-0.71;100.00;95141.41;5040005;28;20201;-67
2024/01/15 03:10:59;;;;;;;14.13;4.90;;;;;;;-0.67;100.00;95137.59;5040201;28;20242;-68
2024/01/15 03:13:25;;;;;;;11.17;3.67;;;;;;;-0.65;100.00;95138.25;5040330;28;20225;-67
2024/01/15 03:15:53;;;;;;;10.73;4.43;;;;;;;-0.58;100.00;95140.16;5039999;28;20315;-67
2024/01/15 03:18:19;;;;;;;12.23;4.60;;;;;;;-0.71;100.00;95135.41;5038970;28;20217;-68
2024/01/15 03:20:46;;;;;;;11.93;3.50;;;;;;;-0.73;100.00;95139.91;5039695;28;20208;-67
2024/01/15 03:23:13;;;;;;;10.47;3.87;;;;;;;-0.62;100.00;95138.00;5039890;28;20203;-68
2024/01/15 03:25:39;;;;;;;8.73;3.70;;;;;;;-0.58;100.00;95144.53;5039515;28;20203;-68
2024/01/15 03:28:06;;;;;;;12.57;4.67;;;;;;;-0.63;100.00;95140.75;5039303;28;20243;-68
2024/01/15 03:30:32;;;;;;;9.73;3.67;;;;;;;-0.69;100.00;95142.06;5039823;28;20235;-68
2024/01/15 03:33:00;;;;;;;11.83;4.13;;;;;;;-0.73;100.00;95140.72;5038858;28;20208;-68
2024/01/15 03:35:29;;;;;;;11.77;3.67;;;;;;;-0.78;100.00;95137.72;5039106;28;20208;-68
2024/01/15 03:37:55;;;;;;;6.60;3.20;;;;;;;-0.79;100.00;95130.09;5039699;28;20222;-67
2024/01/15 03:40:22;;;;;;;9.20;3.50;;;;;;;-0.77;100.00;95131.59;5039573;28;20202;-68
2024/01/15 03:42:48;;;;;;;7.07;3.40;;;;;;;-0.73;100.00;95132.97;5039528;28;20206;-67
2024/01/15 03:45:15;;;;;;;7.03;3.60;;;;;;;-0.81;100.00;95127.66;5039233;28;20590;-67
2024/01/15 03:47:42;;;;;;;12.53;4.47;;;;;;;-0.63;100.00;95121.66;5037814;28;20227;-68
2024/01/15 03:50:10;;;;;;;7.27;2.63;;;;;;;-0.57;100.00;95126.28;5038681;28;20205;-68
2024/01/15 03:52:37;;;;;;;10.13;3.13;;;;;;;-0.70;100.00;95131.88;5039229;28;20206;-67
2024/01/15 03:55:05;;;;;;;8.20;3.07;;;;;;;-0.55;100.00;95126.97;5037308;28;20582;-67
2024/01/15 03:57:32;;;;;;;10.93;3.67;;;;;;;-0.55;100.00;95129.56;5038621;28;20224;-68
2024/01/15 03:59:58;;;;;;;9.80;2.90;;;;;;;-0.60;100.00;95126.56;5039772;28;20216;-68
2024/01/15 04:02:25;;;;;;;7.63;3.53;;;;;;;-0.65;100.00;95125.31;5038880;28;20826;-68
2024/01/15 04:04:51;;;;;;;7.47;3.67;;;;;;;-0.64;100.00;95124.38;5038723;28;20214;-68
2024/01/15 04:07:19;;;;;;;6.57;2.90;;;;;;;-0.53;100.00;95121.66;5039296;28;20419;-67
2024/01/15 04:09:46;;;;;;;10.73;2.73;;;;;;;-0.66;100.00;95126.31;5039144;28;20215;-68
2024/01/15 04:12:12;;;;;;;8.50;3.73;;;;;;;-0.59;100.00;95123.03;5038929;28;20584;-67
2024/01/15 04:14:39;;;;;;;9.90;4.00;;;;;;;-0.44;100.00;95121.63;5038773;28;20202;-68
2024/01/15 04:17:05;;;;;;;11.73;3.33;;;;;;;-0.55;100.00;95113.22;5038222;28;20604;-67
2024/01/15 04:19:32;;;;;;;9.23;3.33;;;;;;;-0.50;100.00;95109.28;5038121;28;20208;-67
2024/01/15 04:21:58;;;;;;;9.43;3.57;;;;;;;-0.50;100.00;95111.03;5039095;28;20200;-68
2024/01/15 04:24:26;;;;;;;7.93;2.83;;;;;;;-0.37;100.00;95116.72;5038762;28;20431;-68
2024/01/15 04:26:52;;;;;;;5.47;3.10;;;;;;;-0.31;100.00;95111.00;5038219;28;20224;-67
2024/01/15 04:29:19;;;;;;;7.67;2.57;;;;;;;-0.42;100.00;95116.31;5038259;28;20215;-67
2024/01/15 04:31:45;;;;;;;8.73;3.30;;;;;;;-0.46;100.00;95107.22;5038995;28;20227;-67
2024/01/15 04:34:12;;;;;;;7.90;2.53;;;;;;;-0.33;100.00;95107.72;5038753;28;20208;-67
2024/01/15 04:36:40;;;;;;;6.03;2.60;;;;;;;-0.18;100.00;95106.34;5038300;28;20227;-67
2024/01/15 04:39:07;;;;;;;10.57;2.93;;;;;;;-0.15;100.00;95106.03;5038747;28;20203;-67
2024/01/15 04:41:35;;;;;;;8.57;2.37;;;;;;;-0.17;100.00;95100.22;5037928;28;20638;-67
2024/01/15 04:44:01;;;;;;;8.20;3.47;;;;;;;-0.19;100.00;95099.53;5038500;28;20216;-68
2024/01/15 04:46:28;;;;;;;10.97;3.60;;;;;;;-0.05;100.00;95102.50;5037426;28;20216;-68
2024/01/15 04:48:54;;;;;;;11.70;3.80;;;;;;;-0.02;100.00;95095.25;5037194;28;20208;-68
2024/01/15 04:51:21;;;;;;;7.03;2.93;;;;;;;-0.07;100.00;95098.41;5038230;28;20225;-67
2024/01/15 04:53:47;;;;;;;7.33;2.37;;;;;;;0.07;100.00;95094.41;5038702;28;20204;-69
2024/01/15 04:56:14;;;;;;;10.53;3.03;;;;;;;0.03;100.00;95090.47;5037540;28;20228;-68
2024/01/15 04:58:41;;;;;;;7.20;3.10;;;;;;;0.09;100.00;95087.31;5037874;28;20201;-68
2024/01/15 05:01:09;;;;;;;7.73;3.00;;;;;;;0.03;100.00;95090.47;5038138;28;20223;-68
2024/01/15 05:03:36;;;;;;;7.63;3.17;;;;;;;0.04;100.00;95079.16;5036960;28;20291;-68
2024/01/15 05:06:03;;;;;;;7.30;3.07;;;;;;;0.03;100.00;95080.09;5037624;28;20298;-67
2024/01/15 05:08:29;;;;;;;8.40;3.03;;;;;;;0.15;100.00;95088.50;5037874;28;20575;-68
2024/01/15 05:10:56;;;;;;;7.13;2.53;;;;;;;-0.04;100.00;95087.78;5038016;28;20225;-68
2024/01/15 05:13:22;;;;;;;4.93;2.80;;;;;;;0.06;100.00;95079.00;5037974;28;20205;-68
2024/01/15 05:15:50;;;;;;;6.10;2.63;;;;;;;0.16;100.00;95085.78;5037543;28;20241;-67
2024/01/15 05:18:17;;;;;;;5.10;2.30;;;;;;;0.15;100.00;95079.00;5036601;28;20567;-68
2024/01/15 05:20:44;;;;;;;3.37;2.17;;;;;;;0.15;100.00;95078.16;5037043;28;20197;-68
2024/01/15 05:23:10;;;;;;;9.10;2.40;;;;;;;-0.03;100.00;95079.06;5038351;28;20204;-67
2024/01/15 05:25:37;;;;;;;4.17;1.80;;;;;;;-0.01;100.00;95085.72;5036567;28;20975;-67
2024/01/15 05:28:04;;;;;;;5.27;2.70;;;;;;;0.23;100.00;95081.66;5037256;28;20203;-68
2024/01/15 05:30:30;;;;;;;5.97;2.83;;;;;;;0.25;100.00;95078.94;5037659;28;20216;-67
2024/01/15 05:33:00;;;;;;;6.17;2.50;;;;;;;0.40;100.00;95072.31;5037623;28;20229;-67
2024/01/15 05:35:26;;;;;;;4.30;2.37;;;;;;;0.21;100.00;95070.63;5037205;28;20286;-69
2024/01/15 05:37:53;;;;;;;9.70;2.60;;;;;;;0.28;100.00;95065.69;5037259;28;20211;-68
2024/01/15 05:40:19;;;;;;;6.43;2.93;;;;;;;0.22;100.00;95066.28;5037791;28;20203;-67
2024/01/15 05:42:46;;;;;;;5.03;2.90;;;;;;;0.16;100.00;95072.81;5037138;28;20209;-67
2024/01/15 05:45:12;;;;;;;6.87;2.30;;;;;;;0.18;100.00;95077.88;5037011;28;20705;-68
2024/01/15 05:47:39;;;;;;;5.20;2.57;;;;;;;0.28;100.00;95074.28;5036251;28;20221;-67
2024/01/15 05:50:07;;;;;;;5.73;2.20;;;;;;;0.35;100.00;95077.91;5036591;28;20705;-68
2024/01/15 05:52:34;;;;;;;5.03;2.27;;;;;;;0.33;100.00;95071.25;5037172;28;20285;-67
2024/01/15 05:55:00;;;;;;;7.50;2.63;;;;;;;0.30;100.00;95068.97;5037233;28;20201;-67
2024/01/15 05:57:27;;;;;;;2.10;1.60;;;;;;;0.34;100.00;95076.28;5037107;28;20220;-67
2024/01/15 05:59:54;;;;;;;4.83;2.43;;;;;;;0.35;100.00;95077.13;5037278;28;20256;-67
2024/01/15 06:02:21;;;;;;;8.07;2.70;;;;;;;0.40;100.00;95082.69;5037086;28;20209;-68
2024/01/15 06:04:47;;;;;;;1.90;1.10;;;;;;;0.33;100.00;95092.81;5036200;28;20204;-67
2024/01/15 06:07:15;;;;;;;8.93;2.47;;;;;;;0.53;100.00;95083.97;5037364;28;20221;-67
2024/01/15 06:09:41;;;;;;;5.23;2.10;;;;;;;0.27;100.00;95083.00;5036838;28;20209;-68
2024/01/15 06:12:09;;;;;;;5.30;2.23;;;;;;;0.40;100.00;95072.31;5036767;28;20228;-67
2024/01/15 06:14:35;;;;;;;6.33;2.60;;;;;;;0.40;100.00;95072.31;5036204;28;20205;-68
2024/01/15 06:17:02;;;;;;;6.90;1.80;;;;;;;0.41;100.00;95074.75;5036223;28;20225;-67
2024/01/15 06:19:29;;;;;;;3.93;1.60;;;;;;;0.52;100.00;95071.97;5035934;28;20918;-68
2024/01/15 06:21:55;;;;;;;4.93;2.20;;;;;;;0.40;100.00;95070.53;5037185;28;20205;-68
2024/01/15 06:24:23;;;;;;;8.20;3.97;;;;;;;0.47;100.00;95065.59;5037263;28;20295;-67
2024/01/15 06:26:50;;;;;;;6.23;2.90;;;;;;;0.45;100.00;95070.91;5036239;28;20222;-67
2024/01/15 06:29:16;;;;;;;5.67;2.27;;;;;;;0.42;100.00;95066.03;5036806;28;20549;-68
2024/01/15 06:31:43;;;;;;;5.67;2.53;;;;;;;0.39;100.00;95068.09;5036617;28;20230;-68
2024/01/15 06:34:09;;;;;;;4.63;2.40;;;;;;;0.41;100.00;95071.34;5036662;28;20597;-67
2024/01/15 06:36:36;;;;;;;9.13;3.23;;;;;;;0.44;100.00;95068.47;5036433;28;20658;-67
2024/01/15 06:39:03;;;;;;;6.93;2.60;;;;;;;0.39;100.00;95065.50;5036673;28;20212;-68
2024/01/15 06:41:30;;;;;;;8.67;2.57;;;;;;;0.53;100.00;95060.63;5036348;28;20810;-68
2024/01/15 06:43:57;;;;;;;7.00;2.60;;;;;;;0.42;100.00;95058.25;5036976;28;20214;-68
2024/01/15 06:46:24;;;;;;;4.87;2.30;;;;;;;0.56;100.00;95055.19;5036343;28;20796;-69
2024/01/15 06:48:50;;;;;;;5.53;2.07;;;;;;;0.46;100.00;95067.38;5035487;28;20212;-69
2024/01/15 06:51:17;;;;;;;5.17;3.17;;;;;;;0.55;100.00;95056.13;5036505;28;20666;-69
2024/01/15 06:53:43;;;;;;;9.50;3.13;;;;;;;0.46;100.00;95051.81;5036630;28;20212;-69
2024/01/15 06:56:10;;;;;;;10.90;2.27;;;;;;;0.43;100.00;95052.09;5036413;28;20245;-69
2024/01/15 06:58:38;;;;;;;4.47;2.20;;;;;;;0.59;100.00;95047.09;5035807;28;20204;-69
2024/01/15 07:01:05;;;;;;;7.50;3.47;;;;;;;0.56;100.00;95039.63;5036537;28;20209;-68
2024/01/15 07:03:32;;;;;;;4.93;2.00;;;;;;;0.43;100.00;95041.72;5036407;28;20951;-69
2024/01/15 07:05:58;;;;;;;5.00;2.00;;;;;;;0.53;100.00;95042.50;5035949;28;20232;-68
2024/01/15 07:08:24;;;;;;;6.30;2.07;;;;;;;0.54;100.00;95041.53;5036679;28;20211;-69
2024/01/15 07:10:51;;;;;;;4.43;1.97;;;;;;;0.61;100.00;95039.97;5034262;28;20212;-69
2024/01/15 07:13:18;;;;;;;4.37;1.73;;;;;;;0.76;100.00;95044.53;5034597;28;20217;-69
2024/01/15 07:15:45;;;;;;;3.90;1.63;;;;;;;0.89;100.00;95045.00;5031012;28;20888;-69
2024/01/15 07:18:12;;;;;;;3.47;2.27;;;;;;;0.74;100.00;95053.44;5033277;28;20204;-69
2024/01/15 07:20:39;;;;;;;5.50;2.60;;;;;;;0.81;100.00;95046.69;5034875;28;20200;-69
2024/01/15 07:23:05;;;;;;;4.47;2.07;;;;;;;0.80;100.00;95048.47;5034736;28;20565;-69
2024/01/15 07:25:32;;;;;;;4.83;2.70;;;;;;;0.61;100.00;95052.94;5034379;28;20201;-69
2024/01/15 07:27:59;;;;;;;7.93;2.53;;;;;;;0.65;100.00;95051.72;5038917;28;20208;-69
2024/01/15 07:30:25;;;;;;;4.73;2.30;;;;;;;0.77;100.00;95047.94;5038183;28;20199;-69
2024/01/15 07:32:53;;;;;;;7.47;3.13;;;;;;;0.80;100.00;95056.25;5038155;28;20231;-69
2024/01/15 07:35:20;;;;;;;7.90;1.87;;;;;;;0.61;100.00;95039.97;5038152;28;20252;-69
2024/01/15 07:37:46;;;;;;;4.73;2.10;;;;;;;0.46;100.00;95051.00;5038137;28;20229;-69
2024/01/15 07:40:13;;;;;;;9.13;2.57;;;;;;;0.63;100.00;95043.25;5038618;28;20219;-69
2024/01/15 07:42:39;;;;;;;6.60;1.90;;;;;;;0.58;100.00;95042.06;5037993;28;20209;-69
2024/01/15 07:45:07;;;;;;;4.70;2.93;;;;;;;0.66;100.00;95033.41;5037580;28;21155;-69
2024/01/15 07:47:33;;;;;;;5.50;1.90;;;;;;;0.61;100.00;95037.38;5038432;28;20778;-69
2024/01/15 07:50:01;;;;;;;6.60;2.43;;;;;;;0.68;100.00;95047.03;5039210;28;20239;-69
2024/01/15 07:52:27;;;;;;;7.57;2.50;;;;;;;0.64;100.00;95047.50;5038592;28;21167;-69
2024/01/15 07:54:54;;;;;;;6.60;3.13;;;;;;;0.59;100.00;95052.28;5039391;28;20205;-69
2024/01/15 07:57:21;;;;;;;8.70;2.43;;;;;;;0.66;100.00;95048.13;5038619;28;20609;-69
2024/01/15 07:59:48;;;;;;;7.67;2.67;;;;;;;0.62;100.00;95049.41;5039316;28;20209;-69
2024/01/15 08:02:14;;;;;;;5.90;2.50;;;;;;;0.59;100.00;95049.69;5039202;28;20668;-69
2024/01/15 08:04:41;;;;;;;6.60;2.67;;;;;;;0.68;100.00;95046.22;5038282;28;20197;-68
2024/01/15 08:07:09;;;;;;;7.53;4.00;;;;;;;0.86;100.00;95050.44;5039066;28;20255;-68
2024/01/15 08:09:35;;;;;;;10.07;3.40;;;;;;;0.61;100.00;95040.81;5038194;28;20810;-69
2024/01/15 08:12:02;;;;;;;6.67;2.93;;;;;;;0.68;100.00;95038.44;5038225;28;20224;-69
2024/01/15 08:14:28;;;;;;;6.67;2.33;;;;;;;0.71;100.00;95049.34;5038239;28;20208;-69
2024/01/15 08:16:55;;;;;;;2.37;1.33;;;;;;;0.73;100.00;95054.38;5038013;28;21222;-69
2024/01/15 08:19:21;;;;;;;5.93;2.20;;;;;;;0.77;100.00;95056.53;5038315;28;20203;-68
2024/01/15 08:21:48;;;;;;;4.37;1.63;;;;;;;0.93;100.00;95061.88;5038489;28;20209;-68
2024/01/15 08:24:16;;;;;;;5.63;2.33;;;;;;;1.17;100.00;95063.88;5039258;28;20205;-69
2024/01/15 08:26:43;;;;;;;4.20;1.90;;;;;;;1.10;100.00;95068.03;5038406;28;20228;-69
2024/01/15 08:29:10;;;;;;;6.03;2.57;;;;;;;0.98;100.00;95066.59;5038372;28;20857;-68
2024/01/15 08:31:36;;;;;;;4.17;2.60;;;;;;;1.04;100.00;95066.03;5036341;28;20193;-68
2024/01/15 08:34:04;;;;;;;7.13;2.50;;;;;;;1.09;100.00;95064.59;5037146;28;20212;-68
2024/01/15 08:36:31;;;;;;;4.77;2.20;;;;;;;0.91;100.00;95055.22;5036142;28;21369;-68
2024/01/15 08:38:58;;;;;;;9.40;2.83;;;;;;;1.04;100.00;95055.66;5033413;28;20195;-68
2024/01/15 08:41:25;;;;;;;5.80;2.77;;;;;;;1.14;100.00;95053.81;5035566;28;21091;-69
2024/01/15 08:43:52;;;;;;;10.93;2.80;;;;;;;1.00;100.00;95062.09;5034866;28;20555;-68
2024/01/15 08:46:19;;;;;;;6.73;2.47;;;;;;;1.00;100.00;95054.31;5034755;28;20300;-69
2024/01/15 08:48:46;;;;;;;3.10;2.20;;;;;;;1.03;100.00;95057.44;5033712;28;20687;-69
2024/01/15 08:51:13;;;;;;;12.47;2.20;;;;;;;1.19;100.00;95061.94;5034853;28;20213;-69
2024/01/15 08:53:39;;;;;;;5.00;2.20;;;;;;;1.09;100.00;95066.41;5034666;28;20606;-69
2024/01/15 08:56:08;;;;;;;7.47;3.70;;;;;;;1.26;100.00;95069.78;5034436;28;20225;-68
2024/01/15 08:58:36;;;;;;;6.40;2.37;;;;;;;1.41;100.00;95052.75;5034256;28;20240;-68
2024/01/15 09:01:02;;;;;;;5.20;2.10;;;;;;;1.47;100.00;95044.31;5034804;28;20223;-68
2024/01/15 09:03:29;;;;;;;4.40;2.43;;;;;;;1.48;100.00;95039.97;5034480;28;20191;-68
2024/01/15 09:05:56;;;;;;;5.63;3.00;;;;;;;1.68;100.00;95037.03;5034226;28;20744;-70
2024/01/15 09:08:23;;;;;;;4.90;3.20;;;;;;;1.26;100.00;95030.88;5035205;28;20613;-66
2024/01/15 09:10:49;;;;;;;7.00;3.63;;;;;;;1.41;100.00;95031.16;5034474;28;20936;-68
2024/01/15 09:13:16;;;;;;;5.90;2.33;;;;;;;1.36;100.00;95023.00;5034862;28;20225;-68
2024/01/15 09:15:44;;;;;;;6.17;3.10;;;;;;;1.56;100.00;95035.63;5035064;28;20781;-69
2024/01/15 09:18:11;;;;;;;7.13;2.70;;;;;;;1.63;100.00;95026.28;5035159;28;20274;-68
2024/01/15 09:20:38;;;;;;;8.13;3.27;;;;;;;1.68;100.00;95026.66;5036221;28;20211;-68
2024/01/15 09:23:05;;;;;;;4.77;2.30;;;;;;;1.82;100.00;95018.28;5035952;28;20816;-68
2024/01/15 09:25:31;;;;;;;2.40;1.83;;;;;;;1.76;100.00;95011.09;5035451;28;20668;-69
2024/01/15 09:27:58;;;;;;;8.27;2.43;;;;;;;2.01;100.00;95010.25;5034812;28;20259;-69
2024/01/15 09:30:24;;;;;;;4.83;2.93;;;;;;;2.01;100.00;95026.66;5035498;28;20208;-69
2024/01/15 09:32:52;;;;;;;2.47;1.60;;;;;;;1.82;100.00;95029.47;5036170;28;20232;-69
2024/01/15 09:35:19;;;;;;;5.33;2.33;;;;;;;1.90;100.00;95039.91;5034505;28;20201;-68
2024/01/15 09:37:45;;;;;;;4.07;2.00;;;;;;;1.93;100.00;95039.59;5034957;28;20221;-68
2024/01/15 09:40:15;;;;;;;4.37;1.50;;;;;;;2.19;99.00;95037.78;5035014;28;20202;-69
2024/01/15 09:42:42;;;;;;;4.63;2.37;;;;;;;2.02;98.77;95036.06;5035169;28;20200;-68
2024/01/15 09:45:10;;;;;;;5.80;2.00;;;;;;;2.18;97.75;95025.75;5035145;28;20205;-69
2024/01/15 09:47:37;;;;;;;4.57;1.67;;;;;;;2.28;96.95;95023.03;5035072;28;20220;-69
2024/01/15 09:50:06;;;;;;;3.73;1.43;;;;;;;2.12;98.79;95017.78;5034435;28;20215;-68
2024/01/15 09:52:35;;;;;;;3.40;1.83;;;;;;;1.99;96.92;95014.78;5035796;28;20224;-69
2024/01/15 09:55:03;;;;;;;3.23;1.63;;;;;;;2.14;96.12;95016.66;5034682;28;20679;-69
2024/01/15 09:57:30;;;;;;;1.97;1.57;;;;;;;2.06;95.50;95016.63;5035355;28;20673;-68
2024/01/15 10:00:00;;;;;;;2.37;1.53;;;;;;;2.12;96.38;95007.38;5035420;28;20198;-69
2024/01/15 10:02:26;;;;;;;1.67;1.17;;;;;;;1.95;96.30;95011.69;5034905;28;21164;-68
2024/01/15 10:04:54;;;;;;;4.03;1.60;;;;;;;2.20;95.28;94994.41;5034675;28;20201;-70
2024/01/15 10:07:24;;;;;;;3.47;2.03;;;;;;;2.27;94.70;94990.25;5035339;28;20228;-70
2024/01/15 10:09:50;;;;;;;3.17;1.27;;;;;;;2.16;94.61;94990.50;5035750;28;20211;-69
2024/01/15 10:12:17;;;;;;;1.43;1.27;;;;;;;2.30;92.10;94985.50;5034992;28;21125;-70
2024/01/15 10:14:44;;;;;;;2.27;0.80;;;;;;;2.33;92.24;94985.22;5034390;28;20205;-68
2024/01/15 10:17:15;;;;;;;3.43;1.53;;;;;;;2.62;92.10;94980.41;5034974;28;20286;-69
2024/01/15 10:19:42;;;;;;;2.10;1.17;;;;;;;2.33;91.26;94987.00;5033086;28;20200;-68
2024/01/15 10:22:09;;;;;;;3.13;1.77;;;;;;;2.37;91.37;94983.94;5035776;28;20632;-69
2024/01/15 10:24:37;;;;;;;1.13;0.90;;;;;;;2.54;92.87;94977.78;5034383;28;20201;-69
2024/01/15 10:27:08;;;;;;;3.30;1.10;;;;;;;2.49;92.39;94985.25;5035796;28;20310;-68
2024/01/15 10:29:34;;;;;;;5.47;2.53;;;;;;;2.37;92.17;94981.34;5035121;28;20208;-69
2024/01/15 10:32:01;;;;;;;1.33;1.17;;;;;;;2.52;93.04;94982.31;5035228;28;20209;-69
2024/01/15 10:34:28;;;;;;;1.63;1.40;;;;;;;2.47;93.45;94980.22;5035937;28;20228;-70
2024/01/15 10:36:56;;;;;;;3.07;1.23;;;;;;;2.46;93.04;94978.59;5034987;28;20225;-69
2024/01/15 10:39:21;;;;;;;2.90;1.30;;;;;;;2.26;94.46;94973.00;5035053;28;20204;-68
2024/01/15 10:41:50;;;;;;;2.90;0.87;;;;;;;2.40;95.22;94964.59;5035823;28;20210;-70
2024/01/15 10:44:17;;;;;;;2.97;2.10;;;;;;;2.40;94.47;94960.22;5035777;28;20201;-69
2024/01/15 10:46:45;;;;;;;3.07;1.20;;;;;;;2.38;96.42;94948.34;5034936;28;20225;-68
2024/01/15 10:49:12;;;;;;;1.60;0.90;;;;;;;2.41;95.87;94939.25;5034885;28;20212;-70
2024/01/15 10:51:39;;;;;;;1.87;0.90;;;;;;;2.35;94.78;94938.28;5036303;28;20205;-69
2024/01/15 10:54:06;;;;;;;2.20;1.20;;;;;;;2.54;94.58;94924.00;5036270;28;20599;-70
2024/01/15 10:56:34;;;;;;;2.10;1.50;;;;;;;2.44;94.89;94925.97;5035323;28;20808;-69
2024/01/15 10:59:04;;;;;;;5.00;1.57;;;;;;;2.60;93.76;94918.16;5035513;28;20222;-69
2024/01/15 11:01:31;;;;;;;3.93;1.93;;;;;;;2.58;94.81;94917.53;5037688;28;20209;-70
2024/01/15 11:03:58;;;;;;;1.43;1.30;;;;;;;2.72;93.30;94914.25;5039861;28;20667;-70
2024/01/15 11:06:25;;;;;;;4.30;1.80;;;;;;;3.04;92.95;94915.09;5039366;28;21397;-69
2024/01/15 11:08:54;;;;;;;4.67;1.80;;;;;;;2.92;92.76;94920.00;5040066;28;20212;-69
2024/01/15 11:11:23;;;;;;;2.27;1.33;;;;;;;3.05;93.24;94918.50;5039766;28;20302;-69
2024/01/15 11:13:51;;;;;;;1.83;1.13;;;;;;;2.90;93.33;94914.91;5039573;28;20239;-69
2024/01/15 11:16:19;;;;;;;8.87;1.47;;;;;;;2.97;92.93;94912.50;5039776;28;20277;-70
2024/01/15 11:19:03;;;;;;;4.07;1.67;;;;;;;3.04;91.85;94904.69;5038890;28;20209;-69
2024/01/15 11:21:30;;;;;;;1.97;1.23;;;;;;;2.84;92.29;94907.78;5039799;28;20229;-69
2024/01/15 11:23:58;;;;;;;4.47;1.60;;;;;;;2.96;92.70;94911.69;5039783;28;20244;-69
2024/01/15 11:26:36;;;;;;;1.60;1.10;;;;;;;3.11;91.40;94910.84;5038975;28;20225;-68